Arica, Arica Chacalluta International Airport (SCAR)

NameArica Chacalluta International Airport
CityArica
CountryChile
ICAOSCAR
IATAARI
Altitude51 m
CoordinatesGoogle Map
Live Air TrafficLiveATC.net
METARSCAR 240000Z 19006KT 9999 BKN023 17/11 Q1016
2019-10-24 00:00:00 Wind: South (190°) 3.09 m/s - Visibility: > 10000 m - Temperature: 17 °C - Dew point: 11 °C - Humidity: 68% - Pressure: 1016 hPa

Sorry, no flights used the airport in this database.